createdAt,value
2017-12-04T00:00:11.454Z,29.30
2017-12-04T00:02:39.827Z,25.10
2017-12-04T00:05:08.249Z,22.77
2017-12-04T00:07:36.648Z,22.67
2017-12-04T00:10:05.066Z,23.77
2017-12-04T00:12:33.478Z,27.13
2017-12-04T00:15:01.822Z,21.13
2017-12-04T00:17:30.178Z,19.80
2017-12-04T00:19:58.522Z,18.53
2017-12-04T00:22:34.569Z,21.37
2017-12-04T00:25:03.001Z,25.47
2017-12-04T00:27:31.336Z,29.00
2017-12-04T00:29:59.714Z,21.70
2017-12-04T00:32:28.091Z,26.07
2017-12-04T00:34:56.433Z,22.57
2017-12-04T00:37:24.830Z,24.17
2017-12-04T00:39:53.236Z,21.20
2017-12-04T00:42:21.662Z,22.60
2017-12-04T00:44:50.017Z,24.83
2017-12-04T00:47:18.391Z,19.20
2017-12-04T00:49:46.751Z,22.97
2017-12-04T00:52:15.124Z,19.47
2017-12-04T00:54:43.492Z,22.23
2017-12-04T00:57:12.001Z,19.60
2017-12-04T00:59:40.358Z,24.33
2017-12-04T01:02:08.734Z,18.40
2017-12-04T01:04:37.189Z,19.77
2017-12-04T01:07:05.614Z,18.60
2017-12-04T01:09:34.015Z,21.07
2017-12-04T01:12:02.375Z,23.77
2017-12-04T01:14:30.751Z,21.07
2017-12-04T01:16:59.136Z,26.07
2017-12-04T01:19:27.513Z,19.40
2017-12-04T01:21:55.918Z,15.70
2017-12-04T01:24:24.322Z,19.93
2017-12-04T01:26:52.769Z,18.27
2017-12-04T01:29:21.210Z,21.97
2017-12-04T01:31:49.585Z,16.70
2017-12-04T01:34:17.955Z,19.37
2017-12-04T01:36:46.372Z,21.97
2017-12-04T01:39:14.793Z,16.13
2017-12-04T01:41:43.250Z,16.23
2017-12-04T01:44:11.606Z,24.30
2017-12-04T01:46:40.047Z,21.73
2017-12-04T01:49:08.682Z,21.23
2017-12-04T01:51:37.042Z,20.87
2017-12-04T01:54:05.380Z,25.67
2017-12-04T01:56:33.731Z,22.73
2017-12-04T01:59:02.093Z,21.07
2017-12-04T02:01:30.461Z,24.37
2017-12-04T02:03:58.810Z,23.73
2017-12-04T02:06:27.213Z,20.40
2017-12-04T02:08:55.637Z,23.17
2017-12-04T02:11:24.000Z,17.10
2017-12-04T02:13:52.337Z,22.60
2017-12-04T02:16:20.728Z,25.17
2017-12-04T02:18:49.102Z,22.57
2017-12-04T02:21:17.606Z,18.10
2017-12-04T02:23:45.966Z,18.23
2017-12-04T02:26:14.297Z,18.20
2017-12-04T02:28:42.691Z,20.07
2017-12-04T02:31:11.008Z,16.23
2017-12-04T02:33:39.374Z,18.70
2017-12-04T02:36:07.751Z,15.90
2017-12-04T02:38:36.095Z,22.13
2017-12-04T02:41:04.524Z,19.03
2017-12-04T02:43:32.916Z,28.63
2017-12-04T02:46:01.323Z,21.10
2017-12-04T02:48:29.700Z,17.97
2017-12-04T02:50:58.104Z,21.53
2017-12-04T02:53:26.456Z,18.83
2017-12-04T02:55:54.805Z,22.40
2017-12-04T02:58:23.146Z,18.67
2017-12-04T03:00:51.614Z,23.43
2017-12-04T03:03:20.048Z,23.23
2017-12-04T03:05:48.394Z,22.13
2017-12-04T03:08:16.749Z,25.73
2017-12-04T03:10:45.106Z,29.67
2017-12-04T03:13:13.497Z,38.50
2017-12-04T03:15:41.871Z,29.30
2017-12-04T03:18:10.240Z,29.53
2017-12-04T03:20:38.705Z,32.07
2017-12-04T03:23:07.186Z,31.80
2017-12-04T03:25:35.578Z,32.73
2017-12-04T03:28:04.157Z,27.67
2017-12-04T03:30:32.512Z,33.03
2017-12-04T03:33:00.935Z,30.63
2017-12-04T03:35:29.297Z,32.30
2017-12-04T03:37:57.672Z,31.33
2017-12-04T03:40:26.009Z,33.90
2017-12-04T03:42:54.409Z,26.60
2017-12-04T03:45:22.754Z,26.37
2017-12-04T03:47:51.137Z,26.77
2017-12-04T03:50:19.525Z,26.27
2017-12-04T03:52:47.913Z,30.83
2017-12-04T03:55:16.276Z,26.40
2017-12-04T03:57:44.627Z,26.27
2017-12-04T04:00:13.054Z,29.17
2017-12-04T04:02:41.385Z,31.63
2017-12-04T04:05:09.764Z,33.10
2017-12-04T04:07:38.167Z,33.50
2017-12-04T04:10:06.573Z,39.03
2017-12-04T04:12:34.884Z,36.80
2017-12-04T04:15:03.267Z,30.23
2017-12-04T04:17:31.646Z,31.13
2017-12-04T04:20:00.047Z,27.70
2017-12-04T04:22:28.485Z,29.63
2017-12-04T04:24:56.833Z,30.50
2017-12-04T04:27:25.241Z,28.43
2017-12-04T04:29:53.601Z,29.47
2017-12-04T04:32:21.997Z,24.87
2017-12-04T04:34:50.368Z,29.63
2017-12-04T04:37:18.696Z,27.40
2017-12-04T04:39:47.078Z,29.07
2017-12-04T04:42:15.423Z,31.80
2017-12-04T04:44:43.810Z,31.53
2017-12-04T04:47:12.143Z,30.73
2017-12-04T04:49:40.520Z,31.63
2017-12-04T04:52:08.888Z,26.40
2017-12-04T04:54:37.277Z,31.57
2017-12-04T04:57:05.693Z,32.30
2017-12-04T04:59:34.122Z,32.63
2017-12-04T05:02:02.624Z,30.07
2017-12-04T05:04:31.009Z,38.70
2017-12-04T05:06:59.367Z,36.43
2017-12-04T05:09:27.702Z,33.10
2017-12-04T05:11:57.210Z,35.57
2017-12-04T05:14:25.549Z,25.43
2017-12-04T05:16:53.923Z,31.37
2017-12-04T05:19:22.289Z,29.03
2017-12-04T05:21:50.644Z,30.23
2017-12-04T05:24:19.023Z,34.60
2017-12-04T05:26:47.405Z,30.47
2017-12-04T05:29:15.805Z,30.33
2017-12-04T05:31:44.156Z,26.10
2017-12-04T05:34:12.557Z,28.33
2017-12-04T05:36:40.983Z,27.97
2017-12-04T05:39:09.404Z,31.43
2017-12-04T05:41:37.766Z,36.07
2017-12-04T05:44:06.970Z,40.37
2017-12-04T05:46:36.711Z,31.70
2017-12-04T05:49:06.056Z,52.97
2017-12-04T05:51:34.462Z,33.30
2017-12-04T05:54:04.123Z,40.43
2017-12-04T05:56:32.549Z,34.70
2017-12-04T05:59:02.671Z,37.33
2017-12-04T06:01:31.095Z,34.20
2017-12-04T06:03:59.763Z,27.53
2017-12-04T06:06:28.123Z,41.13
2017-12-04T06:08:57.060Z,35.83
2017-12-04T06:11:25.449Z,32.80
2017-12-04T06:13:54.094Z,44.53
2017-12-04T06:16:22.486Z,37.83
2017-12-04T06:18:50.866Z,33.67
2017-12-04T06:21:19.273Z,35.83
2017-12-04T06:23:48.809Z,32.13
2017-12-04T06:26:17.634Z,34.20
2017-12-04T06:28:47.588Z,31.80
2017-12-04T06:31:15.989Z,33.57
2017-12-04T06:33:44.409Z,31.20
2017-12-04T06:36:12.821Z,30.27
2017-12-04T06:38:41.341Z,33.97
2017-12-04T06:41:10.634Z,37.73
2017-12-04T06:43:39.080Z,32.90
2017-12-04T06:46:07.806Z,31.77
2017-12-04T06:48:36.271Z,29.37
2017-12-04T06:51:04.793Z,38.10
2017-12-04T06:53:33.196Z,30.40
2017-12-04T06:56:01.745Z,52.90
2017-12-04T06:58:30.156Z,30.07
2017-12-04T07:00:58.674Z,26.60
2017-12-04T07:03:27.255Z,32.53
2017-12-04T07:05:55.758Z,28.53
2017-12-04T07:08:24.934Z,33.87
2017-12-04T07:10:53.687Z,25.83
2017-12-04T07:13:23.200Z,28.83
2017-12-04T07:36:32.360Z,21.80
2017-12-04T07:39:04.296Z,21.83
2017-12-04T07:41:33.788Z,28.40
2017-12-04T07:44:03.372Z,24.43
2017-12-04T07:46:32.027Z,34.77
2017-12-04T07:49:02.100Z,29.43
2017-12-04T07:51:30.574Z,27.40
2017-12-04T07:53:59.281Z,25.77
2017-12-04T07:56:28.447Z,39.90
2017-12-04T07:58:57.755Z,29.30
2017-12-04T08:18:00.879Z,32.40
2017-12-04T08:20:31.101Z,30.00
2017-12-04T08:25:36.388Z,27.20
2017-12-04T09:06:35.907Z,28.90
2017-12-04T09:14:50.114Z,19.70
2017-12-04T09:22:25.376Z,19.40
2017-12-04T09:27:26.363Z,15.10
2017-12-04T09:29:55.167Z,22.33
2017-12-04T09:40:08.201Z,18.97
2017-12-04T09:50:23.473Z,16.03
2017-12-04T09:52:55.479Z,16.53
2017-12-04T10:20:08.525Z,23.53
2017-12-04T12:52:52.058Z,14.47
2017-12-04T13:00:29.861Z,13.23
2017-12-04T13:38:12.278Z,24.50
2017-12-04T14:07:26.456Z,22.60
2017-12-04T14:17:42.304Z,21.60
2017-12-04T14:20:13.139Z,20.83
2017-12-04T14:22:43.350Z,21.07
2017-12-04T14:25:18.401Z,27.27
2017-12-04T14:27:47.098Z,36.60
2017-12-04T14:30:15.796Z,27.60
2017-12-04T14:37:51.972Z,20.83
2017-12-04T14:50:46.917Z,24.33
2017-12-04T14:53:17.089Z,25.70
2017-12-04T15:11:20.195Z,22.67
2017-12-04T15:37:15.599Z,30.30
2017-12-04T15:42:22.854Z,21.47
2017-12-04T15:52:47.995Z,20.17
2017-12-04T16:11:03.123Z,24.17
2017-12-04T16:51:50.019Z,25.50
2017-12-04T17:30:08.111Z,32.93
2017-12-04T18:01:21.295Z,21.60
2017-12-04T19:31:43.849Z,28.60
2017-12-04T19:34:15.902Z,27.63
2017-12-04T19:36:50.401Z,28.70
2017-12-04T19:39:20.457Z,40.43
2017-12-04T19:41:48.920Z,24.93
2017-12-04T19:57:03.288Z,34.90
2017-12-04T19:59:31.689Z,38.00
2017-12-04T20:04:33.632Z,32.60
2017-12-04T20:07:01.961Z,41.37
2017-12-04T20:09:30.302Z,32.70
2017-12-04T20:17:03.720Z,31.00
2017-12-04T20:19:32.318Z,33.03
2017-12-04T20:24:33.433Z,36.50
2017-12-04T20:27:02.334Z,33.20
2017-12-04T20:29:32.464Z,28.00
2017-12-04T20:32:01.157Z,36.20
2017-12-04T20:34:29.490Z,37.87
2017-12-04T20:36:57.881Z,38.87
2017-12-04T20:39:26.262Z,39.33
2017-12-04T20:41:54.640Z,44.27
2017-12-04T20:44:24.010Z,31.30
2017-12-04T20:46:52.646Z,33.40
2017-12-04T20:49:22.212Z,44.50
2017-12-04T20:51:50.744Z,35.63
2017-12-04T20:54:19.700Z,40.63
2017-12-04T20:56:48.146Z,37.60
2017-12-04T21:01:49.261Z,39.37
2017-12-04T21:04:17.766Z,28.50
2017-12-04T21:12:02.870Z,36.17
2017-12-04T21:14:42.943Z,30.70
2017-12-04T21:17:36.859Z,27.90
2017-12-04T21:20:05.356Z,35.50
2017-12-04T21:22:33.845Z,43.77
2017-12-04T21:25:02.974Z,28.77
2017-12-04T21:27:31.923Z,28.37
2017-12-04T21:32:38.330Z,29.60
2017-12-04T21:35:06.809Z,34.87
2017-12-04T21:37:35.157Z,29.47
2017-12-04T21:40:03.615Z,35.33
2017-12-04T21:42:33.877Z,37.30
2017-12-04T21:47:36.165Z,29.97
2017-12-04T21:50:07.998Z,28.83
2017-12-04T21:52:36.570Z,28.73
2017-12-04T21:55:05.254Z,35.40
2017-12-04T21:57:35.698Z,32.73
2017-12-04T22:00:04.190Z,27.03
2017-12-04T22:02:32.697Z,26.70
2017-12-04T22:05:01.238Z,29.20
2017-12-04T22:07:30.268Z,31.20
2017-12-04T22:09:58.702Z,33.53
2017-12-04T22:12:27.172Z,33.10
2017-12-04T22:14:55.639Z,32.37
2017-12-04T22:19:57.354Z,32.33
2017-12-04T22:22:25.886Z,36.10
2017-12-04T22:24:54.400Z,34.83
2017-12-04T22:29:57.103Z,36.30
2017-12-04T22:32:25.856Z,31.43
2017-12-04T22:34:54.337Z,26.90
2017-12-04T22:37:22.822Z,38.47
2017-12-04T22:42:24.276Z,31.57
2017-12-04T22:44:53.002Z,35.03
2017-12-04T22:47:21.574Z,29.00
2017-12-04T22:49:50.050Z,39.20
2017-12-04T22:52:18.466Z,40.07
2017-12-04T22:54:47.117Z,39.33
2017-12-04T22:57:15.579Z,40.37
2017-12-04T22:59:45.870Z,33.07
2017-12-04T23:02:14.337Z,36.33
2017-12-04T23:04:43.535Z,29.10
2017-12-04T23:07:11.958Z,33.17
2017-12-04T23:09:43.809Z,29.27
2017-12-04T23:12:12.245Z,32.77
2017-12-04T23:14:40.733Z,31.27
2017-12-04T23:17:09.222Z,32.73
2017-12-04T23:19:37.741Z,33.10
2017-12-04T23:22:06.169Z,39.47
2017-12-04T23:24:34.572Z,35.57
2017-12-04T23:27:03.033Z,37.03
2017-12-04T23:29:31.449Z,47.60
2017-12-04T23:31:59.925Z,31.23
2017-12-04T23:34:28.381Z,25.97
2017-12-04T23:37:01.839Z,42.83
2017-12-04T23:39:30.389Z,32.47
2017-12-04T23:41:58.835Z,42.20
2017-12-04T23:44:27.248Z,29.00
2017-12-04T23:46:55.672Z,27.23
2017-12-04T23:49:24.083Z,40.57
2017-12-04T23:51:52.450Z,33.53
2017-12-04T23:54:21.561Z,35.47
2017-12-04T23:56:49.970Z,29.70
2017-12-04T23:59:18.431Z,33.30
